createdAt,value
2023-03-18T00:02:10.548Z,5.40
2023-03-18T00:04:42.338Z,5.20
2023-03-18T00:07:10.743Z,4.87
2023-03-18T00:09:40.352Z,5.47
2023-03-18T00:12:09.329Z,4.77
2023-03-18T00:14:38.679Z,5.17
2023-03-18T00:17:08.097Z,5.57
2023-03-18T00:19:36.402Z,5.57
2023-03-18T00:22:06.472Z,5.70
2023-03-18T00:24:34.846Z,4.77
2023-03-18T00:27:03.275Z,5.27
2023-03-18T00:29:31.942Z,4.50
2023-03-18T00:32:00.408Z,4.93
2023-03-18T00:34:29.046Z,4.50
2023-03-18T00:36:57.862Z,4.57
2023-03-18T00:39:29.169Z,5.00
2023-03-18T00:42:02.080Z,5.40
2023-03-18T00:44:30.789Z,4.13
2023-03-18T00:46:59.127Z,4.63
2023-03-18T00:49:27.486Z,4.13
2023-03-18T00:51:55.797Z,4.77
2023-03-18T00:54:24.835Z,3.87
2023-03-18T00:56:58.361Z,4.40
2023-03-18T00:59:27.411Z,4.20
2023-03-18T01:01:55.802Z,4.30
2023-03-18T01:04:24.750Z,3.87
2023-03-18T01:06:53.072Z,4.53
2023-03-18T01:09:24.945Z,3.97
2023-03-18T01:11:54.656Z,4.03
2023-03-18T01:14:22.922Z,3.60
2023-03-18T01:16:51.247Z,3.80
2023-03-18T01:19:20.057Z,3.67
2023-03-18T01:21:48.469Z,3.93
2023-03-18T01:24:19.398Z,3.83
2023-03-18T01:26:47.669Z,4.23
2023-03-18T01:29:17.784Z,3.63
2023-03-18T01:31:47.117Z,3.83
2023-03-18T01:34:18.404Z,4.23
2023-03-18T01:36:48.018Z,3.80
2023-03-18T01:39:17.540Z,4.13
2023-03-18T01:41:46.192Z,3.83
2023-03-18T01:44:20.620Z,4.70
2023-03-18T01:46:49.960Z,4.03
2023-03-18T01:49:24.079Z,4.03
2023-03-18T01:51:56.573Z,4.23
2023-03-18T01:54:27.511Z,4.57
2023-03-18T01:56:57.733Z,6.03
2023-03-18T01:59:30.102Z,5.60
2023-03-18T02:02:04.578Z,4.87
2023-03-18T02:04:39.388Z,4.43
2023-03-18T02:07:08.889Z,4.47
2023-03-18T02:09:37.830Z,4.63
2023-03-18T02:12:08.730Z,4.37
2023-03-18T02:14:38.556Z,4.20
2023-03-18T02:17:12.367Z,3.93
2023-03-18T02:20:05.229Z,4.90
2023-03-18T02:22:39.354Z,4.20
2023-03-18T02:25:32.979Z,4.33
2023-03-18T02:28:05.965Z,4.07
2023-03-18T02:30:38.572Z,3.87
2023-03-18T02:33:08.602Z,4.13
2023-03-18T02:35:37.870Z,4.33
2023-03-18T02:38:09.110Z,4.20
2023-03-18T02:40:41.300Z,4.27
2023-03-18T02:43:27.553Z,3.97
2023-03-18T02:46:19.803Z,4.40
2023-03-18T02:48:49.429Z,4.83
2023-03-18T02:51:19.476Z,3.93
2023-03-18T02:53:48.199Z,4.30
2023-03-18T02:56:17.709Z,4.43
2023-03-18T02:58:47.515Z,4.50
2023-03-18T03:01:19.283Z,4.23
2023-03-18T03:03:47.600Z,4.77
2023-03-18T03:06:19.796Z,4.50
2023-03-18T03:08:50.955Z,4.80
2023-03-18T03:11:20.660Z,4.30
2023-03-18T03:13:50.545Z,4.43
2023-03-18T03:16:20.357Z,3.90
2023-03-18T03:18:48.990Z,4.37
2023-03-18T03:21:18.165Z,4.87
2023-03-18T03:23:47.764Z,4.10
2023-03-18T03:26:17.533Z,4.93
2023-03-18T03:28:46.093Z,5.20
2023-03-18T03:31:16.968Z,4.70
2023-03-18T03:33:46.400Z,4.60
2023-03-18T03:36:17.810Z,4.57
2023-03-18T03:38:46.648Z,4.73
2023-03-18T03:41:15.960Z,4.20
2023-03-18T03:43:45.592Z,4.90
2023-03-18T03:46:15.581Z,4.87
2023-03-18T03:48:47.535Z,4.63
2023-03-18T03:51:15.885Z,4.83
2023-03-18T03:53:46.213Z,5.07
2023-03-18T03:56:15.638Z,5.00
2023-03-18T03:58:44.044Z,4.80
2023-03-18T04:01:12.664Z,4.50
2023-03-18T04:03:42.436Z,5.03
2023-03-18T04:06:11.179Z,4.20
2023-03-18T04:08:39.524Z,5.43
2023-03-18T04:11:07.808Z,4.80
2023-03-18T04:13:36.110Z,4.30
2023-03-18T04:16:04.504Z,4.60
2023-03-18T04:18:32.780Z,4.50
2023-03-18T04:21:02.705Z,4.83
2023-03-18T04:23:33.143Z,5.47
2023-03-18T04:26:01.614Z,4.23
2023-03-18T04:28:30.177Z,5.37
2023-03-18T04:30:58.668Z,4.93
2023-03-18T04:33:27.932Z,4.50
2023-03-18T04:35:56.413Z,5.33
2023-03-18T04:38:26.180Z,4.10
2023-03-18T04:40:54.522Z,4.70
2023-03-18T04:43:22.877Z,4.70
2023-03-18T04:45:52.939Z,4.73
2023-03-18T04:48:25.957Z,5.03
2023-03-18T04:50:55.408Z,4.60
2023-03-18T04:53:25.558Z,4.43
2023-03-18T04:55:53.916Z,4.47
2023-03-18T04:58:22.397Z,4.90
2023-03-18T05:00:51.138Z,4.77
2023-03-18T05:03:19.631Z,4.90
2023-03-18T05:05:49.229Z,4.53
2023-03-18T05:08:18.229Z,5.03
2023-03-18T05:10:50.722Z,5.10
2023-03-18T05:13:19.181Z,5.33
2023-03-18T05:15:47.731Z,5.20
2023-03-18T05:18:16.382Z,5.07
2023-03-18T05:20:45.977Z,4.80
2023-03-18T05:23:14.297Z,5.90
2023-03-18T05:25:42.644Z,5.23
2023-03-18T05:28:12.510Z,5.37
2023-03-18T05:30:40.934Z,5.60
2023-03-18T05:33:09.187Z,5.30
2023-03-18T05:35:37.596Z,5.83
2023-03-18T05:38:06.854Z,5.60
2023-03-18T05:40:36.008Z,5.50
2023-03-18T05:43:05.171Z,5.57
2023-03-18T05:45:40.041Z,5.03
2023-03-18T05:48:09.068Z,6.00
2023-03-18T05:50:41.744Z,5.50
2023-03-18T05:53:12.032Z,5.07
2023-03-18T05:55:44.404Z,5.67
2023-03-18T05:58:12.824Z,5.43
2023-03-18T06:00:43.415Z,5.00
2023-03-18T06:03:11.785Z,5.33
2023-03-18T06:05:40.139Z,6.00
2023-03-18T06:08:08.518Z,5.03
2023-03-18T06:10:36.806Z,5.97
2023-03-18T06:13:05.937Z,6.00
2023-03-18T06:15:37.142Z,7.77
2023-03-18T06:18:06.958Z,8.30
2023-03-18T06:20:37.779Z,8.20
2023-03-18T06:23:06.359Z,8.40
2023-03-18T06:25:44.281Z,8.63
2023-03-18T06:28:13.019Z,7.17
2023-03-18T06:30:41.867Z,7.27
2023-03-18T06:33:12.129Z,6.60
2023-03-18T06:35:40.655Z,6.73
2023-03-18T06:38:14.434Z,5.93
2023-03-18T06:40:45.732Z,5.73
2023-03-18T06:43:14.189Z,5.67
2023-03-18T06:45:42.667Z,5.27
2023-03-18T06:48:12.292Z,5.00
2023-03-18T06:50:42.155Z,5.53
2023-03-18T06:53:12.629Z,5.60
2023-03-18T06:55:41.483Z,5.83
2023-03-18T06:58:10.550Z,5.50
2023-03-18T07:00:41.629Z,6.67
2023-03-18T07:03:11.398Z,5.90
2023-03-18T07:05:39.894Z,5.83
2023-03-18T07:08:08.379Z,5.67
2023-03-18T07:10:40.854Z,5.40
2023-03-18T07:13:15.815Z,5.80
2023-03-18T07:15:44.570Z,6.13
2023-03-18T07:18:14.430Z,5.97
2023-03-18T07:20:43.291Z,5.77
2023-03-18T07:23:14.833Z,5.20
2023-03-18T07:25:44.723Z,5.97
2023-03-18T07:28:13.258Z,6.43
2023-03-18T07:30:41.570Z,6.50
2023-03-18T07:33:10.005Z,6.37
2023-03-18T07:35:43.963Z,6.13
2023-03-18T07:38:15.648Z,6.63
2023-03-18T07:40:43.909Z,6.57
2023-03-18T07:43:12.229Z,7.30
2023-03-18T07:45:40.516Z,7.27
2023-03-18T07:48:08.849Z,7.23
2023-03-18T07:50:37.266Z,19.83
2023-03-18T07:53:06.939Z,9.80
2023-03-18T07:55:38.250Z,8.17
2023-03-18T07:58:07.599Z,8.67
2023-03-18T08:00:36.684Z,7.63
2023-03-18T08:03:06.083Z,8.83
2023-03-18T08:05:34.976Z,7.90
2023-03-18T08:08:04.355Z,7.80
2023-03-18T08:10:34.152Z,7.73
2023-03-18T08:13:02.862Z,7.80
2023-03-18T08:15:31.777Z,8.37
2023-03-18T08:18:00.761Z,8.40
2023-03-18T08:20:29.099Z,8.73
2023-03-18T08:22:57.414Z,8.43
2023-03-18T08:25:27.427Z,8.27
2023-03-18T08:27:57.197Z,8.70
2023-03-18T08:30:28.718Z,8.90
2023-03-18T08:32:57.390Z,11.30
2023-03-18T08:35:25.930Z,9.00
2023-03-18T08:37:55.919Z,11.27
2023-03-18T08:40:26.086Z,10.30
2023-03-18T08:42:56.097Z,8.83
2023-03-18T08:45:24.457Z,8.53
2023-03-18T08:47:53.780Z,8.80
2023-03-18T08:50:22.853Z,9.57
2023-03-18T08:52:51.334Z,9.70
2023-03-18T08:55:21.420Z,9.57
2023-03-18T08:57:50.057Z,9.17
2023-03-18T09:00:21.446Z,10.23
2023-03-18T09:02:50.106Z,9.37
2023-03-18T09:05:19.116Z,9.43
2023-03-18T09:07:47.926Z,9.63
2023-03-18T09:10:18.411Z,9.03
2023-03-18T09:12:47.824Z,9.30
2023-03-18T09:15:20.261Z,9.90
2023-03-18T09:18:04.170Z,9.50
2023-03-18T09:20:38.984Z,9.73
2023-03-18T09:23:07.770Z,9.73
2023-03-18T09:25:36.057Z,10.37
2023-03-18T09:28:04.437Z,10.40
2023-03-18T09:30:34.405Z,9.43
2023-03-18T09:33:03.086Z,10.77
2023-03-18T09:35:31.813Z,10.60
2023-03-18T09:38:00.575Z,11.00
2023-03-18T09:40:32.729Z,10.23
2023-03-18T09:43:16.235Z,9.37
2023-03-18T09:45:57.153Z,9.33
2023-03-18T09:48:50.173Z,9.97
2023-03-18T09:51:37.312Z,11.67
2023-03-18T09:54:12.210Z,12.40
2023-03-18T09:56:40.971Z,9.50
2023-03-18T09:59:21.547Z,10.13
2023-03-18T10:01:56.287Z,8.67
2023-03-18T10:04:28.972Z,8.83
2023-03-18T10:07:04.173Z,9.90
2023-03-18T10:09:40.338Z,9.33
2023-03-18T10:12:19.022Z,9.90
2023-03-18T10:14:51.507Z,9.10
2023-03-18T10:17:27.652Z,9.73
2023-03-18T10:19:59.382Z,9.63
2023-03-18T10:22:53.318Z,9.57
2023-03-18T10:25:27.753Z,9.13
2023-03-18T10:28:29.944Z,9.60
2023-03-18T10:31:09.550Z,10.23
2023-03-18T10:33:47.829Z,10.13
2023-03-18T10:36:22.784Z,10.33
2023-03-18T10:38:52.917Z,9.77
2023-03-18T10:41:27.116Z,10.23
2023-03-18T10:43:58.410Z,10.37
2023-03-18T10:46:28.437Z,10.87
2023-03-18T10:49:04.653Z,10.50
2023-03-18T10:51:40.133Z,11.43
2023-03-18T10:54:15.330Z,11.73
2023-03-18T10:56:44.060Z,11.23
2023-03-18T10:59:16.396Z,11.17
2023-03-18T11:01:48.418Z,11.90
2023-03-18T11:04:21.633Z,12.27
2023-03-18T11:06:53.311Z,12.13
2023-03-18T11:09:24.114Z,12.40
2023-03-18T11:11:59.591Z,10.80
2023-03-18T11:14:32.028Z,11.03
2023-03-18T11:17:02.796Z,11.87
2023-03-18T11:19:34.578Z,10.83
2023-03-18T11:22:11.832Z,11.80
2023-03-18T11:24:42.707Z,11.57
2023-03-18T11:27:36.531Z,13.13
2023-03-18T11:30:24.338Z,11.77
2023-03-18T11:33:05.156Z,11.40
2023-03-18T11:35:43.164Z,11.50
2023-03-18T11:38:18.847Z,11.33
2023-03-18T11:40:47.436Z,11.13
2023-03-18T11:43:21.347Z,10.63
2023-03-18T11:45:55.306Z,11.53
2023-03-18T11:48:36.730Z,12.17
2023-03-18T11:51:38.166Z,11.00
2023-03-18T11:54:25.005Z,10.03
2023-03-18T11:56:57.326Z,10.87
2023-03-18T11:59:43.209Z,10.83
2023-03-18T12:02:42.626Z,12.70
2023-03-18T12:05:52.201Z,11.03
2023-03-18T12:08:34.833Z,11.47
2023-03-18T12:11:10.868Z,11.33
2023-03-18T12:13:54.040Z,10.60
2023-03-18T12:16:46.835Z,11.50
2023-03-18T12:19:52.724Z,11.83
2023-03-18T12:22:41.911Z,10.67
2023-03-18T12:25:30.753Z,11.33
2023-03-18T12:28:05.914Z,10.57
2023-03-18T12:31:22.782Z,11.17
2023-03-18T12:33:57.249Z,10.70
2023-03-18T12:36:44.430Z,11.47
2023-03-18T12:39:55.484Z,10.77
2023-03-18T12:42:48.823Z,10.30
2023-03-18T12:45:21.545Z,11.07
2023-03-18T12:47:55.393Z,11.37
2023-03-18T12:50:29.137Z,10.60
2023-03-18T12:53:03.175Z,10.33
2023-03-18T12:55:35.708Z,9.63
2023-03-18T12:58:12.228Z,9.70
2023-03-18T13:00:48.138Z,9.63
2023-03-18T13:03:30.431Z,9.20
2023-03-18T13:06:04.659Z,9.63
2023-03-18T13:09:03.174Z,10.47
2023-03-18T13:11:56.533Z,9.03
2023-03-18T13:14:39.430Z,9.17
2023-03-18T13:17:15.631Z,9.57
2023-03-18T13:19:44.915Z,9.17
2023-03-18T13:22:38.261Z,9.70
2023-03-18T13:25:22.750Z,8.63
2023-03-18T13:28:22.934Z,8.70
2023-03-18T13:31:08.582Z,8.70
2023-03-18T13:34:28.045Z,7.47
2023-03-18T13:37:37.777Z,8.10
2023-03-18T13:40:29.212Z,8.63
2023-03-18T13:43:00.237Z,9.40
2023-03-18T13:45:32.605Z,8.57
2023-03-18T13:48:08.672Z,8.27
2023-03-18T13:50:39.854Z,8.97
2023-03-18T13:53:26.339Z,9.47
2023-03-18T13:56:04.564Z,8.83
2023-03-18T13:58:37.601Z,8.73
2023-03-18T14:01:33.297Z,8.83
2023-03-18T14:04:30.362Z,8.37
2023-03-18T14:07:15.227Z,8.70
2023-03-18T14:10:05.391Z,9.03
2023-03-18T14:12:42.866Z,8.50
2023-03-18T14:15:42.160Z,8.63
2023-03-18T14:18:27.727Z,8.87
2023-03-18T14:21:04.204Z,8.00
2023-03-18T14:23:43.682Z,8.90
2023-03-18T14:26:24.198Z,8.43
2023-03-18T14:28:57.912Z,8.83
2023-03-18T14:31:35.583Z,8.83
2023-03-18T14:34:27.845Z,8.00
2023-03-18T14:37:31.697Z,8.67
2023-03-18T14:40:12.647Z,8.60
2023-03-18T14:42:58.618Z,8.53
2023-03-18T14:45:33.275Z,8.90
2023-03-18T14:48:06.721Z,9.03
2023-03-18T14:50:43.111Z,8.87
2023-03-18T14:53:22.609Z,9.20
2023-03-18T14:55:55.160Z,9.13
2023-03-18T14:58:26.580Z,9.43
2023-03-18T15:00:58.779Z,9.30
2023-03-18T15:03:29.389Z,9.27
2023-03-18T15:06:00.549Z,9.03
2023-03-18T15:08:46.675Z,9.50
2023-03-18T15:11:17.451Z,9.10
2023-03-18T15:13:46.427Z,10.33
2023-03-18T15:16:20.323Z,9.57
2023-03-18T15:18:54.888Z,10.70
2023-03-18T15:21:28.711Z,10.83
2023-03-18T15:24:03.560Z,10.57
2023-03-18T15:26:35.974Z,9.97
2023-03-18T15:29:25.638Z,10.30
2023-03-18T15:31:54.191Z,10.23
2023-03-18T15:34:26.188Z,11.07
2023-03-18T15:36:57.319Z,11.33
2023-03-18T15:39:36.382Z,10.07
2023-03-18T15:42:15.508Z,10.57
2023-03-18T15:44:46.582Z,9.73
2023-03-18T15:47:18.456Z,10.40
2023-03-18T15:49:54.489Z,10.47
2023-03-18T15:52:26.196Z,11.93
2023-03-18T15:54:56.426Z,12.10
2023-03-18T15:57:31.732Z,11.20
2023-03-18T16:00:00.269Z,11.37
2023-03-18T16:02:30.250Z,11.10
2023-03-18T16:05:09.363Z,10.77
2023-03-18T16:07:38.673Z,11.37
2023-03-18T16:10:10.681Z,11.67
2023-03-18T16:12:41.057Z,11.60
2023-03-18T16:15:21.928Z,11.63
2023-03-18T16:17:50.899Z,11.33
2023-03-18T16:20:22.924Z,12.13
2023-03-18T16:22:52.016Z,11.93
2023-03-18T16:25:22.336Z,11.37
2023-03-18T16:27:55.607Z,12.00
2023-03-18T16:30:27.785Z,12.43
2023-03-18T16:32:57.131Z,11.43
2023-03-18T16:35:27.931Z,11.63
2023-03-18T16:38:01.189Z,11.70
2023-03-18T16:40:32.825Z,12.00
2023-03-18T16:43:02.129Z,12.10
2023-03-18T16:45:32.983Z,11.33
2023-03-18T16:48:06.848Z,11.23
2023-03-18T16:50:38.505Z,11.50
2023-03-18T16:53:17.424Z,11.90
2023-03-18T16:55:48.619Z,12.03
2023-03-18T16:58:21.216Z,11.33
2023-03-18T17:00:49.876Z,11.57
2023-03-18T17:03:19.917Z,11.20
2023-03-18T17:05:52.076Z,12.27
2023-03-18T17:08:22.047Z,14.60
2023-03-18T17:10:55.467Z,14.97
2023-03-18T17:13:28.509Z,13.43
2023-03-18T17:15:57.813Z,15.20
2023-03-18T17:18:27.833Z,13.50
2023-03-18T17:20:56.973Z,11.80
2023-03-18T17:23:28.789Z,12.63
2023-03-18T17:26:00.952Z,25.33
2023-03-18T17:28:34.573Z,25.53
2023-03-18T17:31:03.425Z,22.47
2023-03-18T17:33:34.784Z,18.67
2023-03-18T17:36:03.418Z,15.57
2023-03-18T17:38:32.306Z,14.77
2023-03-18T17:41:02.544Z,15.33
2023-03-18T17:43:33.805Z,13.67
2023-03-18T17:46:04.251Z,13.40
2023-03-18T17:48:34.259Z,13.23
2023-03-18T17:51:06.196Z,12.70
2023-03-18T17:53:37.295Z,12.37
2023-03-18T17:56:09.810Z,11.37
2023-03-18T17:58:38.610Z,11.30
2023-03-18T18:01:09.495Z,12.87
2023-03-18T18:03:40.573Z,14.30
2023-03-18T18:06:17.015Z,13.97
2023-03-18T18:08:45.412Z,12.57
2023-03-18T18:11:21.224Z,12.70
2023-03-18T18:13:51.550Z,13.17
2023-03-18T18:16:21.598Z,17.20
2023-03-18T18:18:50.279Z,19.63
2023-03-18T18:21:21.898Z,18.23
2023-03-18T18:23:50.447Z,17.17
2023-03-18T18:26:22.087Z,27.40
2023-03-18T18:28:52.866Z,39.10
2023-03-18T18:31:23.613Z,44.00
2023-03-18T18:33:55.788Z,34.57
2023-03-18T18:36:28.055Z,26.90
2023-03-18T18:38:56.901Z,20.43
2023-03-18T18:41:27.345Z,18.10
2023-03-18T18:43:56.647Z,19.60
2023-03-18T18:46:26.381Z,17.77
2023-03-18T18:48:54.854Z,16.53
2023-03-18T18:51:25.390Z,16.67
2023-03-18T18:53:55.602Z,16.57
2023-03-18T18:56:34.168Z,17.23
2023-03-18T18:59:05.234Z,16.07
2023-03-18T19:01:33.549Z,13.30
2023-03-18T19:04:02.668Z,13.00
2023-03-18T19:06:33.475Z,13.03
2023-03-18T19:09:03.928Z,13.93
2023-03-18T19:11:33.641Z,13.13
2023-03-18T19:14:20.228Z,13.60
2023-03-18T19:16:49.370Z,12.67
2023-03-18T19:19:20.527Z,12.37
2023-03-18T19:21:50.916Z,12.13
2023-03-18T19:24:28.797Z,12.13
2023-03-18T19:27:01.454Z,13.57
2023-03-18T19:29:33.280Z,11.93
2023-03-18T19:32:02.271Z,12.73
2023-03-18T19:34:32.359Z,12.50
2023-03-18T19:37:02.851Z,12.60
2023-03-18T19:39:31.800Z,12.57
2023-03-18T19:42:01.996Z,12.30
2023-03-18T19:44:30.338Z,11.40
2023-03-18T19:47:01.613Z,11.57
2023-03-18T19:49:33.600Z,11.80
2023-03-18T19:52:02.694Z,11.37
2023-03-18T19:54:36.845Z,11.37
2023-03-18T19:57:14.496Z,11.93
2023-03-18T19:59:43.344Z,11.00
2023-03-18T20:02:22.016Z,11.23
2023-03-18T20:04:51.436Z,10.10
2023-03-18T20:07:22.491Z,10.80
2023-03-18T20:09:51.426Z,10.37
2023-03-18T20:12:25.729Z,10.40
2023-03-18T20:14:54.584Z,10.37
2023-03-18T20:17:33.550Z,10.20
2023-03-18T20:20:02.157Z,10.73
2023-03-18T20:22:34.406Z,11.33
2023-03-18T20:25:03.594Z,12.80
2023-03-18T20:27:33.517Z,12.23
2023-03-18T20:30:02.341Z,16.83
2023-03-18T20:32:30.769Z,14.20
2023-03-18T20:35:00.508Z,14.10
2023-03-18T20:37:34.549Z,12.27
2023-03-18T20:40:04.990Z,13.17
2023-03-18T20:42:35.242Z,13.20
2023-03-18T20:45:04.014Z,12.13
2023-03-18T20:47:32.318Z,11.73
2023-03-18T20:50:00.657Z,11.13
2023-03-18T20:52:31.243Z,10.37
2023-03-18T20:55:00.076Z,10.00
2023-03-18T20:57:28.475Z,10.27
2023-03-18T20:59:58.240Z,10.73
2023-03-18T21:02:32.735Z,10.53
2023-03-18T21:05:05.635Z,10.30
2023-03-18T21:07:33.974Z,10.37
2023-03-18T21:10:02.348Z,10.60
2023-03-18T21:12:32.734Z,10.57
2023-03-18T21:15:02.426Z,10.80
2023-03-18T21:17:30.735Z,11.07
2023-03-18T21:20:11.059Z,11.03
2023-03-18T21:22:44.408Z,11.10
2023-03-18T21:25:19.683Z,10.70
2023-03-18T21:27:51.615Z,10.93
2023-03-18T21:30:23.909Z,10.20
2023-03-18T21:32:52.623Z,9.90
2023-03-18T21:35:23.810Z,10.83
2023-03-18T21:37:52.849Z,10.80
2023-03-18T21:40:23.285Z,10.33
2023-03-18T21:42:52.405Z,10.00
2023-03-18T21:45:24.323Z,10.30
2023-03-18T21:47:53.237Z,9.43
2023-03-18T21:50:24.157Z,9.63
2023-03-18T21:52:53.642Z,8.90
2023-03-18T21:55:22.772Z,9.13
2023-03-18T21:57:51.434Z,8.33
2023-03-18T22:00:22.787Z,9.77
2023-03-18T22:02:51.666Z,10.10
2023-03-18T22:05:22.926Z,12.10
2023-03-18T22:07:51.821Z,9.97
2023-03-18T22:10:23.019Z,11.07
2023-03-18T22:12:51.783Z,8.70
2023-03-18T22:15:37.041Z,8.83
2023-03-18T22:18:07.323Z,9.20
2023-03-18T22:20:36.638Z,10.93
2023-03-18T22:23:16.652Z,10.03
2023-03-18T22:25:46.941Z,10.33
2023-03-18T22:28:15.548Z,9.87
2023-03-18T22:30:47.216Z,11.87
2023-03-18T22:33:22.989Z,11.53
2023-03-18T22:35:51.690Z,11.50
2023-03-18T22:38:22.763Z,13.07
2023-03-18T22:40:54.356Z,12.70
2023-03-18T22:43:31.657Z,11.70
2023-03-18T22:46:14.445Z,12.47
2023-03-18T22:48:43.320Z,13.57
2023-03-18T22:51:21.394Z,13.27
2023-03-18T22:53:54.128Z,13.53
2023-03-18T22:56:24.382Z,13.43
2023-03-18T22:58:53.359Z,13.17
2023-03-18T23:01:29.673Z,14.13
2023-03-18T23:03:58.083Z,13.70
2023-03-18T23:06:27.207Z,12.87
2023-03-18T23:08:55.886Z,12.53
2023-03-18T23:11:24.247Z,13.17
2023-03-18T23:13:53.924Z,11.47
2023-03-18T23:16:26.118Z,12.50
2023-03-18T23:18:54.610Z,12.83
2023-03-18T23:21:25.546Z,12.17
2023-03-18T23:23:54.983Z,12.10
2023-03-18T23:26:23.292Z,10.83
2023-03-18T23:28:51.750Z,11.90
2023-03-18T23:31:20.637Z,11.87
2023-03-18T23:33:50.406Z,11.43
2023-03-18T23:36:18.850Z,12.17
2023-03-18T23:38:47.082Z,12.80
2023-03-18T23:41:15.863Z,11.90
2023-03-18T23:43:44.336Z,11.60
2023-03-18T23:46:12.726Z,11.20
2023-03-18T23:48:41.288Z,11.53
2023-03-18T23:51:11.079Z,11.50
2023-03-18T23:53:39.333Z,13.07
2023-03-18T23:56:09.284Z,12.57
2023-03-18T23:58:37.652Z,13.10
